Ivan Brekalo

Olheiro-Chefe - Hajduk Split
31 Out 2027
Domingo
Processo

Personalidade

Adaptabilidade (12) Ambição (17) Controvérsia (6) Lealdade (11) Pressão (1) Profissionalismo (2) Espírito Esportivo (2) Temperamento (17)

Perfil

Estilo de Treinamento Democrático
Licença Continental A
Determinação 12
Gestão de Pessoas 8
Motivação 7
Disciplina 8
Satisfação no Trabalho
100%
Fadiga
0%
Função Olheiro-Chefe
Salário 59.9K p/s
Contrato 14.03.2028

Desempenho

Comportamento Bom
Eficácia do Treinamento
45%
Desenvolvimento do Jogador
25%
Prevenção de Lesões
60%
Implementação Tática
40%

Eventos Recentes

Participou de uma reunião de recrutamento 56d atrás
Recomendou um alvo de transferência 56d atrás
Recomendou um alvo de transferência 56d atrás
Recomendou um alvo de transferência 56d atrás
Recomendou um alvo de transferência 56d atrás
Recomendou um alvo de transferência 56d atrás

Monitorando agora

59
Jogador Clube Status Habilidade Confiança Observado Última observação Último voto
Luca Maiorano Ospitaletto Ativo 99 / 104 40% 1 16.08.2027 -
Maclyn Biokpo Jenewari Rivers United Ativo 106 / 107 40% 1 16.08.2027 -
Mikel Gogorza Minnesota United FC Relatório pronto 117 / 130 67% 1 09.08.2027 Aprovar
Callum Lang Preston Ativo 120 / 127 40% 1 09.08.2027 -
Stanley Mills Oxford United Ativo 123 / 134 40% 1 09.08.2027 -
Kieran Dowell Hull City Ativo 132 / 132 40% 1 09.08.2027 -
Job Ochieng Real Sociedad Ativo 114 / 100 40% 2 03.08.2027 -
Pablo Viudez Shrewsbury Town Ativo 105 / 98 40% 1 03.08.2027 -
Tyreece Campbell Charlton Athletic Ativo 126 / 124 40% 1 03.08.2027 -
Dale Taylor Blackpool Ativo 109 / 117 40% 2 02.08.2027 -
Jay Stansfield Birmingham Ativo 130 / 139 40% 2 02.08.2027 -
Bradley Fink Wycombe Wanderers Ativo 119 / 120 40% 1 02.08.2027 -
Josh Coburn Millwall Ativo 128 / 124 40% 2 26.07.2027 -
Sindre Walle Egeli Ipswich Town Ativo 139 / 152 40% 1 26.07.2027 -
Fabrizio Cavegn Bristol Rovers Ativo 117 / 116 40% 2 20.07.2027 -
Ryan Oné Sheffield United Ativo 118 / 127 40% 1 20.07.2027 -
Seedy Jatta New York Red Bulls Ativo 118 / 122 67% 1 19.07.2027 Aprovar
Harry Leonard Peterborough United Ativo 114 / 121 40% 1 12.07.2027 -
Malik Mothersille Stockport County Ativo 119 / 132 40% 1 12.07.2027 -
Dom Ballard Leyton Orient Ativo 121 / 137 40% 1 06.07.2027 -
Abu Kamara Portsmouth Ativo 116 / 116 40% 1 06.07.2027 -
Dramane Kamagaté USM Alger Ativo 106 / 101 40% 1 06.07.2027 -
Cameron Pring Bristol City Ativo 128 / 139 40% 1 29.06.2027 -
Charlie Hughes Hull City Ativo 130 / 123 40% 1 29.06.2027 -
Jacques Ekomié Wrexham Ativo 137 / 123 40% 1 14.06.2027 -
Luca Connell Barnsley Perdido 111 / 125 40% 1 14.06.2027 -
Isma Ruiz Córdoba Ativo 136 / 140 40% 1 14.06.2027 -
Matthew Sorinola Oldham Athletic Ativo 115 / 122 40% 1 03.06.2027 -
Dennis Cirkin Queens Park Rangers Ativo 135 / 130 40% 1 03.06.2027 -
Radinio Balker Huddersfield Town Perdido 117 / 110 40% 1 02.06.2027 -
Ryan Wintle Milton Keynes Dons Perdido 121 / 123 40% 1 02.06.2027 -
Terry Devlin Portsmouth Perdido 117 / 119 40% 1 02.06.2027 -
Denzel Imotski Ativo 101 / 96 40% 1 31.01.2027 -
Renato Júnior Al Wasl Ativo 117 / 120 40% 1 30.01.2027 -
Isaak Davies Cardiff City Ativo 112 / 129 40% 2 29.01.2027 -
Dom Ballard Leyton Orient Perdido 123 / 131 40% 1 29.01.2027 -
Iwan Morgan Grimsby Town Perdido 104 / 121 40% 1 28.01.2027 -
Luke Baartman Ghazl El Mahalla Negociando 107 / 106 40% 1 28.01.2027 -
Jonathan Bland Barnsley Ativo 102 / 122 40% 1 28.01.2027 -
Wandile Duba Bidvest Wits Ativo 106 / 108 40% 1 26.01.2027 -
Kelly Saravanan Salford City Ativo 103 / 128 40% 1 26.01.2027 -
Lucas Varaldo Al Jazira Ativo 121 / 111 40% 1 24.01.2027 -
Dilan Ortíz Ufa Ativo 108 / 96 40% 1 21.01.2027 -
Omid Latifi Zob Ahan Ativo 105 / 100 40% 1 21.01.2027 -
Jude Soonsup-Bell Ashanti Gold Ativo 101 / 104 40% 1 19.01.2027 -
Sead Hakšabanović Anderlecht Ativo 119 / 119 66% 1 18.01.2027 Aprovar
Armstrong Oko-Flex Levski Ativo 122 / 127 40% 1 18.01.2027 -
Facundo Kruspzky Al Wahda Ativo 121 / 126 40% 1 17.01.2027 -
Lassina Traoré Shakhtar Ativo 119 / 119 40% 2 14.01.2027 -
Harrison Gyan BA All Stars Ativo 108 / 99 40% 2 13.01.2027 -
Brayan Gil Baltika Ativo 123 / 115 40% 1 12.01.2027 -
Daniel Deac Hajduk Split Ativo 137 / 140 66% 1 11.01.2027 Aprovar
Jerome Karelse Golden Arrows Ativo 106 / 102 40% 1 11.01.2027 -
Evidence Makgopa Orlando Pirates Ativo 118 / 104 40% 1 11.01.2027 -
Andile Zwane RC Lens Ativo 124 / 124 67% 1 07.01.2027 Aprovar
Elijah Adebayo Luton Town Ativo 125 / 120 40% 1 07.01.2027 -
Duckens Nazon Esteghlal Ativo 115 / 115 67% 1 01.01.2027 Aprovar
Ignacio Russo Tigre Ativo 131 / 134 40% 1 01.01.2027 -
Idan Toklomati Charlotte Football Club Ativo 121 / 113 40% 1 01.08.2026 -